sensor_id;sensor_type;location;lat;lon;timestamp;pressure;altitude;pressure_sealevel;temperature;humidity
52927;BME280;40783;49.710;8.842;2023-08-30T00:01:36;98431.53;;;14.86;100.00
52927;BME280;40783;49.710;8.842;2023-08-30T00:04:02;98422.63;;;14.92;100.00
52927;BME280;40783;49.710;8.842;2023-08-30T00:06:27;98427.19;;;14.92;100.00
52927;BME280;40783;49.710;8.842;2023-08-30T00:08:53;98428.22;;;14.97;100.00
52927;BME280;40783;49.710;8.842;2023-08-30T00:11:21;98421.19;;;14.96;100.00
52927;BME280;40783;49.710;8.842;2023-08-30T00:13:49;98429.28;;;14.96;100.00
52927;BME280;40783;49.710;8.842;2023-08-30T00:16:17;98428.84;;;14.99;100.00
52927;BME280;40783;49.710;8.842;2023-08-30T00:18:44;98428.84;;;14.99;100.00
52927;BME280;40783;49.710;8.842;2023-08-30T00:21:10;98422.22;;;14.95;100.00
52927;BME280;40783;49.710;8.842;2023-08-30T00:23:35;98422.22;;;14.95;100.00
52927;BME280;40783;49.710;8.842;2023-08-30T00:26:00;98425.53;;;14.97;100.00
52927;BME280;40783;49.710;8.842;2023-08-30T00:28:25;98423.25;;;14.94;100.00
52927;BME280;40783;49.710;8.842;2023-08-30T00:30:54;98427.19;;;14.98;100.00
52927;BME280;40783;49.710;8.842;2023-08-30T00:33:20;98426.34;;;14.91;100.00
52927;BME280;40783;49.710;8.842;2023-08-30T00:35:45;98424.91;;;14.95;100.00
52927;BME280;40783;49.710;8.842;2023-08-30T00:38:10;98414.78;;;14.97;100.00
52927;BME280;40783;49.710;8.842;2023-08-30T00:40:39;98425.13;;;15.01;100.00
52927;BME280;40783;49.710;8.842;2023-08-30T00:43:05;98416.44;;;14.98;100.00
52927;BME280;40783;49.710;8.842;2023-08-30T00:45:30;98415.19;;;14.94;100.00
52927;BME280;40783;49.710;8.842;2023-08-30T00:47:55;98413.53;;;14.93;100.00
52927;BME280;40783;49.710;8.842;2023-08-30T00:50:20;98410.19;;;14.91;100.00
52927;BME280;40783;49.710;8.842;2023-08-30T00:52:45;98401.09;;;14.92;100.00
52927;BME280;40783;49.710;8.842;2023-08-30T00:55:15;98406.88;;;14.89;100.00
52927;BME280;40783;49.710;8.842;2023-08-30T00:57:40;98398.19;;;14.87;100.00
52927;BME280;40783;49.710;8.842;2023-08-30T01:00:06;98401.91;;;14.86;100.00
52927;BME280;40783;49.710;8.842;2023-08-30T01:02:32;98397.16;;;14.88;100.00
52927;BME280;40783;49.710;8.842;2023-08-30T01:04:57;98400.47;;;14.90;100.00
52927;BME280;40783;49.710;8.842;2023-08-30T01:07:25;98404.00;;;14.91;100.00
52927;BME280;40783;49.710;8.842;2023-08-30T01:09:52;98397.78;;;14.90;100.00
52927;BME280;40783;49.710;8.842;2023-08-30T01:12:20;98392.41;;;14.90;100.00
52927;BME280;40783;49.710;8.842;2023-08-30T01:17:24;98383.69;;;14.88;100.00
52927;BME280;40783;49.710;8.842;2023-08-30T01:27:12;98379.16;;;14.82;100.00
52927;BME280;40783;49.710;8.842;2023-08-30T01:29:43;98377.06;;;14.84;100.00
52927;BME280;40783;49.710;8.842;2023-08-30T01:32:14;98372.94;;;14.88;100.00
52927;BME280;40783;49.710;8.842;2023-08-30T01:34:39;98377.09;;;14.91;100.00
52927;BME280;40783;49.710;8.842;2023-08-30T01:37:06;98374.19;;;14.92;100.00
52927;BME280;40783;49.710;8.842;2023-08-30T01:39:33;98372.94;;;14.88;100.00
52927;BME280;40783;49.710;8.842;2023-08-30T01:42:01;98383.28;;;14.91;100.00
52927;BME280;40783;49.710;8.842;2023-08-30T01:44:30;98374.19;;;14.92;100.00
52927;BME280;40783;49.710;8.842;2023-08-30T01:46:56;98373.56;;;14.90;100.00
52927;BME280;40783;49.710;8.842;2023-08-30T01:49:24;98370.84;;;14.90;100.00
52927;BME280;40783;49.710;8.842;2023-08-30T01:51:50;98360.94;;;14.91;100.00
52927;BME280;40783;49.710;8.842;2023-08-30T01:54:18;98362.59;;;14.92;100.00
52927;BME280;40783;49.710;8.842;2023-08-30T01:56:44;98365.47;;;14.90;100.00
52927;BME280;40783;49.710;8.842;2023-08-30T01:59:09;98364.44;;;14.84;100.00
52927;BME280;40783;49.710;8.842;2023-08-30T02:01:35;98361.53;;;14.86;100.00
52927;BME280;40783;49.710;8.842;2023-08-30T02:04:00;98366.09;;;14.86;100.00
52927;BME280;40783;49.710;8.842;2023-08-30T02:06:34;98363.19;;;14.87;100.00
52927;BME280;40783;49.710;8.842;2023-08-30T02:09:17;98367.09;;;14.71;100.00
52927;BME280;40783;49.710;8.842;2023-08-30T02:11:44;98372.88;;;14.68;100.00
52927;BME280;40783;49.710;8.842;2023-08-30T02:14:11;98365.63;;;14.68;100.00
52927;BME280;40783;49.710;8.842;2023-08-30T02:16:40;98372.31;;;14.73;100.00
52927;BME280;40783;49.710;8.842;2023-08-30T02:19:09;98355.75;;;14.76;100.00
52927;BME280;40783;49.710;8.842;2023-08-30T02:21:34;98366.28;;;14.71;100.00
52927;BME280;40783;49.710;8.842;2023-08-30T02:24:05;98360.09;;;14.77;100.00
52927;BME280;40783;49.710;8.842;2023-08-30T02:26:30;98362.38;;;14.80;100.00
52927;BME280;40783;49.710;8.842;2023-08-30T02:28:57;98355.97;;;14.81;100.00
52927;BME280;40783;49.710;8.842;2023-08-30T02:31:22;98355.53;;;14.84;100.00
52927;BME280;40783;49.710;8.842;2023-08-30T02:33:48;98351.81;;;14.85;100.00
52927;BME280;40783;49.710;8.842;2023-08-30T02:36:13;98360.09;;;14.77;100.00
52927;BME280;40783;49.710;8.842;2023-08-30T02:38:38;98355.75;;;14.82;100.00
52927;BME280;40783;49.710;8.842;2023-08-30T02:41:06;98355.53;;;14.84;100.00
52927;BME280;40783;49.710;8.842;2023-08-30T02:43:33;98355.13;;;14.87;100.00
52927;BME280;40783;49.710;8.842;2023-08-30T02:45:58;98351.38;;;14.88;100.00
52927;BME280;40783;49.710;8.842;2023-08-30T02:48:24;98355.53;;;14.84;100.00
52927;BME280;40783;49.710;8.842;2023-08-30T02:50:49;98354.94;;;14.82;100.00
52927;BME280;40783;49.710;8.842;2023-08-30T02:53:16;98351.81;;;14.85;100.00
52927;BME280;40783;49.710;8.842;2023-08-30T02:55:41;98357.19;;;14.85;100.00
52927;BME280;40783;49.710;8.842;2023-08-30T02:58:06;98353.22;;;14.67;100.00
52927;BME280;40783;49.710;8.842;2023-08-30T03:00:32;98362.56;;;14.72;100.00
52927;BME280;40783;49.710;8.842;2023-08-30T03:02:59;98356.56;;;14.69;100.00
52927;BME280;40783;49.710;8.842;2023-08-30T03:05:24;98356.31;;;14.64;100.00
52927;BME280;40783;49.710;8.842;2023-08-30T03:07:49;98365.88;;;14.74;100.00
52927;BME280;40783;49.710;8.842;2023-08-30T03:10:18;98356.56;;;14.76;100.00
52927;BME280;40783;49.710;8.842;2023-08-30T03:12:43;98351.00;;;14.78;100.00
52927;BME280;40783;49.710;8.842;2023-08-30T03:15:11;98348.94;;;14.80;100.00
52927;BME280;40783;49.710;8.842;2023-08-30T03:17:36;98342.28;;;14.76;100.00
52927;BME280;40783;49.710;8.842;2023-08-30T03:20:02;98351.41;;;14.75;100.00
52927;BME280;40783;49.710;8.842;2023-08-30T03:22:28;98346.22;;;14.80;100.00
52927;BME280;40783;49.710;8.842;2023-08-30T03:24:56;98348.50;;;14.83;100.00
52927;BME280;40783;49.710;8.842;2023-08-30T03:27:21;98352.44;;;14.87;100.00
52927;BME280;40783;49.710;8.842;2023-08-30T03:29:46;98352.66;;;14.86;100.00
52927;BME280;40783;49.710;8.842;2023-08-30T03:32:14;98350.56;;;14.88;100.00
52927;BME280;40783;49.710;8.842;2023-08-30T03:34:39;98353.47;;;14.86;100.00
52927;BME280;40783;49.710;8.842;2023-08-30T03:37:04;98348.91;;;14.87;100.00
52927;BME280;40783;49.710;8.842;2023-08-30T03:39:32;98358.44;;;14.89;100.00
52927;BME280;40783;49.710;8.842;2023-08-30T03:41:57;98341.47;;;14.89;100.00
52927;BME280;40783;49.710;8.842;2023-08-30T03:44:22;98354.72;;;14.90;100.00
52927;BME280;40783;49.710;8.842;2023-08-30T03:46:47;98358.44;;;14.89;100.00
52927;BME280;40783;49.710;8.842;2023-08-30T03:49:15;98348.06;;;14.86;100.00
52927;BME280;40783;49.710;8.842;2023-08-30T03:51:42;98352.22;;;14.75;100.00
52927;BME280;40783;49.710;8.842;2023-08-30T03:54:07;98360.50;;;14.74;100.00
52927;BME280;40783;49.710;8.842;2023-08-30T03:56:36;98351.81;;;14.78;100.00
52927;BME280;40783;49.710;8.842;2023-08-30T03:59:01;98354.88;;;14.68;100.00
52927;BME280;40783;49.710;8.842;2023-08-30T04:01:29;98355.13;;;14.74;100.00
52927;BME280;40783;49.710;8.842;2023-08-30T04:03:54;98361.75;;;14.78;100.00
52927;BME280;40783;49.710;8.842;2023-08-30T04:06:19;98361.69;;;14.64;100.00
52927;BME280;40783;49.710;8.842;2023-08-30T04:08:45;98364.63;;;14.69;100.00
52927;BME280;40783;49.710;8.842;2023-08-30T04:11:12;98355.53;;;14.71;100.00
52927;BME280;40783;49.710;8.842;2023-08-30T04:13:40;98359.25;;;14.69;100.00
52927;BME280;40783;49.710;8.842;2023-08-30T04:16:05;98359.63;;;14.66;100.00
52927;BME280;40783;49.710;8.842;2023-08-30T04:18:32;98358.59;;;14.67;100.00
52927;BME280;40783;49.710;8.842;2023-08-30T04:20:58;98354.44;;;14.58;100.00
52927;BME280;40783;49.710;8.842;2023-08-30T04:23:23;98355.88;;;14.61;100.00
52927;BME280;40783;49.710;8.842;2023-08-30T04:25:48;98353.81;;;14.63;100.00
52927;BME280;40783;49.710;8.842;2023-08-30T04:28:16;98354.66;;;14.63;100.00
52927;BME280;40783;49.710;8.842;2023-08-30T04:30:43;98356.28;;;14.58;100.00
52927;BME280;40783;49.710;8.842;2023-08-30T04:33:08;98354.66;;;14.63;100.00
52927;BME280;40783;49.710;8.842;2023-08-30T04:35:33;98356.31;;;14.64;100.00
52927;BME280;40783;49.710;8.842;2023-08-30T04:37:59;98353.00;;;14.62;100.00
52927;BME280;40783;49.710;8.842;2023-08-30T04:40:24;98352.59;;;14.65;100.00
52927;BME280;40783;49.710;8.842;2023-08-30T04:42:49;98344.31;;;14.67;100.00
52927;BME280;40783;49.710;8.842;2023-08-30T04:45:15;98346.38;;;14.65;100.00
52927;BME280;40783;49.710;8.842;2023-08-30T04:47:40;98345.16;;;14.67;100.00
52927;BME280;40783;49.710;8.842;2023-08-30T04:50:08;98343.50;;;14.66;100.00
52927;BME280;40783;49.710;8.842;2023-08-30T04:52:35;98349.75;;;14.74;100.00
52927;BME280;40783;49.710;8.842;2023-08-30T04:55:00;98354.09;;;14.75;100.00
52927;BME280;40783;49.710;8.842;2023-08-30T04:57:26;98355.75;;;14.76;100.00
52927;BME280;40783;49.710;8.842;2023-08-30T04:59:54;98360.91;;;14.71;100.00
52927;BME280;40783;49.710;8.842;2023-08-30T05:02:19;98365.25;;;14.72;100.00
52927;BME280;40783;49.710;8.842;2023-08-30T05:04:45;98354.72;;;14.77;100.00
52927;BME280;40783;49.710;8.842;2023-08-30T05:07:10;98356.56;;;14.76;100.00
52927;BME280;40783;49.710;8.842;2023-08-30T05:09:35;98349.31;;;14.83;100.00
52927;BME280;40783;49.710;8.842;2023-08-30T05:12:05;98350.16;;;14.77;100.00
52927;BME280;40783;49.710;8.842;2023-08-30T05:14:33;98353.47;;;14.73;100.00
52927;BME280;40783;49.710;8.842;2023-08-30T05:16:58;98359.66;;;14.73;100.00
52927;BME280;40783;49.710;8.842;2023-08-30T05:19:23;98360.72;;;14.79;100.00
52927;BME280;40783;49.710;8.842;2023-08-30T05:21:48;98352.25;;;14.82;100.00
52927;BME280;40783;49.710;8.842;2023-08-30T05:24:16;98363.41;;;14.86;100.00
52927;BME280;40783;49.710;8.842;2023-08-30T05:26:41;98358.63;;;14.74;100.00
52927;BME280;40783;49.710;8.842;2023-08-30T05:29:06;98355.13;;;14.74;100.00
52927;BME280;40783;49.710;8.842;2023-08-30T05:31:32;98351.81;;;14.78;100.00
52927;BME280;40783;49.710;8.842;2023-08-30T05:33:57;98356.97;;;14.73;100.00
52927;BME280;40783;49.710;8.842;2023-08-30T05:36:25;98354.66;;;14.63;100.00
52927;BME280;40783;49.710;8.842;2023-08-30T05:38:52;98352.59;;;14.65;100.00
52927;BME280;40783;49.710;8.842;2023-08-30T05:41:18;98348.50;;;14.69;100.00
52927;BME280;40783;49.710;8.842;2023-08-30T05:43:43;98344.78;;;14.71;100.00
52927;BME280;40783;49.710;8.842;2023-08-30T05:46:08;98340.22;;;14.78;100.00
52927;BME280;40783;49.710;8.842;2023-08-30T05:48:39;98341.47;;;14.82;100.00
52927;BME280;40783;49.710;8.842;2023-08-30T05:51:04;98346.41;;;14.85;100.00
52927;BME280;40783;49.710;8.842;2023-08-30T05:53:29;98335.66;;;14.85;100.00
52927;BME280;40783;49.710;8.842;2023-08-30T05:55:55;98345.59;;;14.91;100.00
52927;BME280;40783;49.710;8.842;2023-08-30T05:58:20;98332.34;;;14.96;100.00
52927;BME280;40783;49.710;8.842;2023-08-30T06:00:46;98331.94;;;14.99;100.00
52927;BME280;40783;49.710;8.842;2023-08-30T06:03:13;98332.97;;;14.98;100.00
52927;BME280;40783;49.710;8.842;2023-08-30T06:05:38;98334.00;;;14.97;100.00
52927;BME280;40783;49.710;8.842;2023-08-30T06:08:04;98339.19;;;14.92;100.00
52927;BME280;40783;49.710;8.842;2023-08-30T06:10:33;98342.28;;;15.03;100.00
52927;BME280;40783;49.710;8.842;2023-08-30T06:12:58;98343.53;;;15.07;100.00
52927;BME280;40783;49.710;8.842;2023-08-30T06:15:23;98347.69;;;15.09;100.00
52927;BME280;40783;49.710;8.842;2023-08-30T06:17:49;98339.81;;;15.08;100.00
52927;BME280;40783;49.710;8.842;2023-08-30T06:20:14;98337.13;;;15.08;100.00
52927;BME280;40783;49.710;8.842;2023-08-30T06:22:40;98336.91;;;15.03;100.00
52927;BME280;40783;49.710;8.842;2023-08-30T06:25:08;98319.13;;;15.08;100.00
52927;BME280;40783;49.710;8.842;2023-08-30T06:27:40;98332.16;;;15.05;100.00
52927;BME280;40783;49.710;8.842;2023-08-30T06:30:06;98321.34;;;15.11;100.00
52927;BME280;40783;49.710;8.842;2023-08-30T06:32:31;98321.56;;;15.17;100.00
52927;BME280;40783;49.710;8.842;2023-08-30T06:34:56;98327.38;;;15.13;100.00
52927;BME280;40783;49.710;8.842;2023-08-30T06:37:21;98330.69;;;15.22;100.00
52927;BME280;40783;49.710;8.842;2023-08-30T06:39:49;98331.94;;;15.26;100.00
52927;BME280;40783;49.710;8.842;2023-08-30T06:42:15;98341.66;;;15.27;100.00
52927;BME280;40783;49.710;8.842;2023-08-30T06:44:41;98343.53;;;15.27;100.00
52927;BME280;40783;49.710;8.842;2023-08-30T06:47:06;98343.94;;;15.31;100.00
52927;BME280;40783;49.710;8.842;2023-08-30T06:49:34;98346.41;;;15.39;100.00
52927;BME280;40783;49.710;8.842;2023-08-30T06:51:59;98348.88;;;15.47;100.00
52927;BME280;40783;49.710;8.842;2023-08-30T06:54:28;98343.06;;;15.64;100.00
52927;BME280;40783;49.710;8.842;2023-08-30T06:56:59;98338.06;;;15.74;100.00
52927;BME280;40783;49.710;8.842;2023-08-30T06:59:24;98336.78;;;15.77;100.00
52927;BME280;40783;49.710;8.842;2023-08-30T07:01:49;98329.97;;;15.87;100.00
52927;BME280;40783;49.710;8.842;2023-08-30T07:04:14;98330.78;;;15.88;100.00
52927;BME280;40783;49.710;8.842;2023-08-30T07:06:40;98324.31;;;15.96;100.00
52927;BME280;40783;49.710;8.842;2023-08-30T07:09:05;98332.16;;;16.04;100.00
52927;BME280;40783;49.710;8.842;2023-08-30T07:11:32;98333.38;;;16.08;100.00
52927;BME280;40783;49.710;8.842;2023-08-30T07:14:00;98320.94;;;16.07;100.00
52927;BME280;40783;49.710;8.842;2023-08-30T07:16:25;98316.59;;;16.13;100.00
52927;BME280;40783;49.710;8.842;2023-08-30T07:18:50;98323.41;;;16.15;100.00
52927;BME280;40783;49.710;8.842;2023-08-30T07:21:15;98322.97;;;16.19;100.00
52927;BME280;40783;49.710;8.842;2023-08-30T07:23:43;98325.00;;;16.23;100.00
52927;BME280;40783;49.710;8.842;2023-08-30T07:26:08;98312.97;;;16.26;100.00
52927;BME280;40783;49.710;8.842;2023-08-30T07:28:36;98316.53;;;16.20;100.00
52927;BME280;40783;49.710;8.842;2023-08-30T07:31:02;98312.50;;;16.36;100.00
52927;BME280;40783;49.710;8.842;2023-08-30T07:33:27;98316.38;;;16.46;100.00
52927;BME280;40783;49.710;8.842;2023-08-30T07:35:55;98309.78;;;16.42;100.00
52927;BME280;40783;49.710;8.842;2023-08-30T07:38:20;98308.28;;;16.46;100.00
52927;BME280;40783;49.710;8.842;2023-08-30T07:40:45;98300.78;;;16.49;100.00
52927;BME280;40783;49.710;8.842;2023-08-30T07:43:10;98311.03;;;16.40;100.00
52927;BME280;40783;49.710;8.842;2023-08-30T07:45:37;98307.84;;;16.50;100.00
52927;BME280;40783;49.710;8.842;2023-08-30T07:48:03;98318.59;;;16.56;100.00
52927;BME280;40783;49.710;8.842;2023-08-30T07:50:28;98312.97;;;16.58;100.00
52927;BME280;40783;49.710;8.842;2023-08-30T07:52:56;98314.63;;;16.59;100.00
52927;BME280;40783;49.710;8.842;2023-08-30T08:03:34;98324.03;;;16.82;100.00
52927;BME280;40783;49.710;8.842;2023-08-30T08:05:59;98330.03;;;16.84;100.00
52927;BME280;40783;49.710;8.842;2023-08-30T08:08:30;98327.97;;;16.86;100.00
52927;BME280;40783;49.710;8.842;2023-08-30T08:10:55;98334.66;;;16.76;100.00
52927;BME280;40783;49.710;8.842;2023-08-30T08:13:20;98327.78;;;16.81;100.00
52927;BME280;40783;49.710;8.842;2023-08-30T08:15:45;98326.41;;;16.71;100.00
52927;BME280;40783;49.710;8.842;2023-08-30T08:18:10;98332.75;;;16.84;100.00
52927;BME280;40783;49.710;8.842;2023-08-30T08:20:36;98326.41;;;16.71;100.00
52927;BME280;40783;49.710;8.842;2023-08-30T08:23:02;98328.41;;;16.83;100.00
52927;BME280;40783;49.710;8.842;2023-08-30T08:25:27;98332.06;;;16.88;100.00
52927;BME280;40783;49.710;8.842;2023-08-30T08:27:52;98334.00;;;16.81;100.00
52927;BME280;40783;49.710;8.842;2023-08-30T08:30:17;98330.03;;;16.84;100.00
52927;BME280;40783;49.710;8.842;2023-08-30T08:32:45;98343.72;;;16.89;100.00
52927;BME280;40783;49.710;8.842;2023-08-30T08:35:10;98328.13;;;16.91;100.00
52927;BME280;40783;49.710;8.842;2023-08-30T08:37:35;98333.59;;;17.10;100.00
52927;BME280;40783;49.710;8.842;2023-08-30T08:40:01;98334.81;;;17.14;100.00
52927;BME280;40783;49.710;8.842;2023-08-30T08:42:35;98332.66;;;17.23;100.00
52927;BME280;40783;49.710;8.842;2023-08-30T08:45:04;98335.47;;;17.34;100.00
52927;BME280;40783;49.710;8.842;2023-08-30T08:47:30;98334.88;;;17.32;100.00
52927;BME280;40783;49.710;8.842;2023-08-30T08:49:55;98333.75;;;17.40;100.00
52927;BME280;40783;49.710;8.842;2023-08-30T08:52:20;98335.59;;;17.21;100.00
52927;BME280;40783;49.710;8.842;2023-08-30T08:54:49;98337.06;;;17.17;100.00
52927;BME280;40783;49.710;8.842;2023-08-30T08:57:14;98327.19;;;17.29;100.00
52927;BME280;40783;49.710;8.842;2023-08-30T08:59:40;98329.63;;;17.38;100.00
52927;BME280;40783;49.710;8.842;2023-08-30T09:02:05;98327.81;;;17.50;100.00
52927;BME280;40783;49.710;8.842;2023-08-30T09:04:33;98326.03;;;17.62;100.00
52927;BME280;40783;49.710;8.842;2023-08-30T09:06:59;98330.31;;;17.70;100.00
52927;BME280;40783;49.710;8.842;2023-08-30T09:09:30;98328.88;;;17.68;100.00
52927;BME280;40783;49.710;8.842;2023-08-30T09:11:55;98326.91;;;17.56;100.00
52927;BME280;40783;49.710;8.842;2023-08-30T09:14:21;98326.19;;;17.68;100.00
52927;BME280;40783;49.710;8.842;2023-08-30T09:16:55;98319.13;;;17.67;100.00
52927;BME280;40783;49.710;8.842;2023-08-30T09:19:23;98326.47;;;17.59;100.00
52927;BME280;40783;49.710;8.842;2023-08-30T09:27:01;98320.25;;;17.59;100.00
52927;BME280;40783;49.710;8.842;2023-08-30T09:29:28;98319.41;;;17.58;100.00
52927;BME280;40783;49.710;8.842;2023-08-30T09:31:54;98321.66;;;17.61;100.00
52927;BME280;40783;49.710;8.842;2023-08-30T09:34:23;98313.56;;;17.61;100.00
52927;BME280;40783;49.710;8.842;2023-08-30T09:36:51;98314.22;;;17.75;100.00
52927;BME280;40783;49.710;8.842;2023-08-30T09:39:17;98309.66;;;17.76;100.00
52927;BME280;40783;49.710;8.842;2023-08-30T09:41:46;98305.00;;;17.83;100.00
52927;BME280;40783;49.710;8.842;2023-08-30T09:46:49;98310.84;;;17.99;100.00
52927;BME280;40783;49.710;8.842;2023-08-30T09:49:20;98312.34;;;18.13;100.00
52927;BME280;40783;49.710;8.842;2023-08-30T09:51:46;98307.19;;;18.12;100.00
52927;BME280;40783;49.710;8.842;2023-08-30T09:54:15;98307.69;;;18.20;100.00
52927;BME280;40783;49.710;8.842;2023-08-30T09:56:41;98311.28;;;18.14;100.00
52927;BME280;40783;49.710;8.842;2023-08-30T09:59:13;98310.69;;;18.12;100.00
52927;BME280;40783;49.710;8.842;2023-08-30T10:01:39;98307.41;;;18.10;100.00
52927;BME280;40783;49.710;8.842;2023-08-30T10:04:05;98307.09;;;18.18;100.00
52927;BME280;40783;49.710;8.842;2023-08-30T10:06:31;98303.78;;;18.16;100.00
52927;BME280;40783;49.710;8.842;2023-08-30T10:08:57;98303.81;;;18.28;100.00
52927;BME280;40783;49.710;8.842;2023-08-30T10:11:23;98307.81;;;18.26;100.00
52927;BME280;40783;49.710;8.842;2023-08-30T10:13:51;98311.88;;;18.35;100.00
52927;BME280;40783;49.710;8.842;2023-08-30T10:16:22;98296.22;;;18.37;100.00
52927;BME280;40783;49.710;8.842;2023-08-30T10:18:52;98300.13;;;18.41;100.00
52927;BME280;40783;49.710;8.842;2023-08-30T10:21:18;98297.28;;;18.36;100.00
52927;BME280;40783;49.710;8.842;2023-08-30T10:23:46;98293.69;;;18.23;100.00
52927;BME280;40783;49.710;8.842;2023-08-30T10:26:13;98290.78;;;18.25;100.00
52927;BME280;40783;49.710;8.842;2023-08-30T10:28:42;98288.09;;;18.37;100.00
52927;BME280;40783;49.710;8.842;2023-08-30T10:31:07;98294.84;;;18.46;100.00
52927;BME280;40783;49.710;8.842;2023-08-30T10:33:43;98293.91;;;18.52;100.00
52927;BME280;40783;49.710;8.842;2023-08-30T10:36:09;98282.38;;;18.45;100.00
52927;BME280;40783;49.710;8.842;2023-08-30T10:38:34;98285.41;;;18.49;100.00
52927;BME280;40783;49.710;8.842;2023-08-30T10:41:06;98280.91;;;18.31;99.93
52927;BME280;40783;49.710;8.842;2023-08-30T10:43:34;98277.00;;;18.27;99.90
52927;BME280;40783;49.710;8.842;2023-08-30T10:46:00;98278.31;;;18.36;98.96
52927;BME280;40783;49.710;8.842;2023-08-30T10:48:34;98273.06;;;18.41;100.00
52927;BME280;40783;49.710;8.842;2023-08-30T10:51:00;98272.22;;;18.41;100.00
52927;BME280;40783;49.710;8.842;2023-08-30T10:53:29;98271.22;;;18.53;100.00
52927;BME280;40783;49.710;8.842;2023-08-30T10:56:09;98270.16;;;18.54;100.00
52927;BME280;40783;49.710;8.842;2023-08-30T10:58:41;98260.59;;;18.64;99.97
52927;BME280;40783;49.710;8.842;2023-08-30T11:01:09;98265.56;;;18.67;100.00
52927;BME280;40783;49.710;8.842;2023-08-30T11:03:34;98261.78;;;18.68;100.00
52927;BME280;40783;49.710;8.842;2023-08-30T11:06:00;98259.22;;;18.73;99.18
52927;BME280;40783;49.710;8.842;2023-08-30T11:08:26;98247.91;;;18.76;96.03
52927;BME280;40783;49.710;8.842;2023-08-30T11:11:00;98251.22;;;18.78;94.54
52927;BME280;40783;49.710;8.842;2023-08-30T11:13:26;98248.38;;;18.73;98.68
52927;BME280;40783;49.710;8.842;2023-08-30T11:15:54;98246.00;;;18.65;98.38
52927;BME280;40783;49.710;8.842;2023-08-30T11:18:19;98246.72;;;18.72;93.38
52927;BME280;40783;49.710;8.842;2023-08-30T11:20:44;98246.97;;;18.82;95.88
52927;BME280;40783;49.710;8.842;2023-08-30T11:23:09;98237.34;;;18.75;97.41
52927;BME280;40783;49.710;8.842;2023-08-30T11:25:37;98237.09;;;18.76;99.07
52927;BME280;40783;49.710;8.842;2023-08-30T11:28:03;98237.09;;;18.76;99.48
52927;BME280;40783;49.710;8.842;2023-08-30T11:30:28;98222.47;;;18.77;96.47
52927;BME280;40783;49.710;8.842;2023-08-30T11:32:53;98229.06;;;18.81;94.29
52927;BME280;40783;49.710;8.842;2023-08-30T11:35:20;98226.97;;;18.83;92.47
52927;BME280;40783;49.710;8.842;2023-08-30T11:37:48;98217.06;;;18.89;91.50
52927;BME280;40783;49.710;8.842;2023-08-30T11:40:14;98222.59;;;18.94;91.09
52927;BME280;40783;49.710;8.842;2023-08-30T11:42:39;98225.47;;;19.00;91.15
52927;BME280;40783;49.710;8.842;2023-08-30T11:45:05;98218.28;;;19.05;82.67
52927;BME280;40783;49.710;8.842;2023-08-30T11:47:32;98210.75;;;19.07;84.61
52927;BME280;40783;49.710;8.842;2023-08-30T11:49:58;98211.41;;;19.15;86.50
52927;BME280;40783;49.710;8.842;2023-08-30T11:52:24;98206.13;;;19.08;88.59
52927;BME280;40783;49.710;8.842;2023-08-30T11:54:50;98207.06;;;19.13;90.88
52927;BME280;40783;49.710;8.842;2023-08-30T11:57:16;98216.03;;;19.14;88.04
52927;BME280;40783;49.710;8.842;2023-08-30T11:59:43;98211.66;;;19.25;88.20
52927;BME280;40783;49.710;8.842;2023-08-30T12:02:11;98200.91;;;19.30;88.30
52927;BME280;40783;49.710;8.842;2023-08-30T12:04:40;98209.28;;;19.40;86.18
52927;BME280;40783;49.710;8.842;2023-08-30T12:07:08;98200.78;;;19.37;83.09
52927;BME280;40783;49.710;8.842;2023-08-30T12:09:33;98208.78;;;19.43;88.18
52927;BME280;40783;49.710;8.842;2023-08-30T12:12:20;98202.06;;;19.46;83.71
52927;BME280;40783;49.710;8.842;2023-08-30T12:14:54;98189.00;;;19.31;84.19
52927;BME280;40783;49.710;8.842;2023-08-30T12:17:20;98188.53;;;19.34;83.61
52927;BME280;40783;49.710;8.842;2023-08-30T12:34:04;98181.25;;;19.23;83.52
52927;BME280;40783;49.710;8.842;2023-08-30T12:36:29;98179.59;;;19.22;86.23
52927;BME280;40783;49.710;8.842;2023-08-30T12:38:54;98184.78;;;19.11;83.25
52927;BME280;40783;49.710;8.842;2023-08-30T12:41:19;98190.50;;;18.98;86.89
52927;BME280;40783;49.710;8.842;2023-08-30T12:43:46;98177.16;;;18.96;82.56
52927;BME280;40783;49.710;8.842;2023-08-30T12:46:11;98177.72;;;19.10;84.28
52927;BME280;40783;49.710;8.842;2023-08-30T12:48:37;98178.91;;;19.15;87.06
52927;BME280;40783;49.710;8.842;2023-08-30T12:51:04;98178.88;;;19.38;88.24
52927;BME280;40783;49.710;8.842;2023-08-30T12:53:29;98194.03;;;19.51;87.33
52927;BME280;40783;49.710;8.842;2023-08-30T12:55:54;98186.72;;;19.52;81.41
52927;BME280;40783;49.710;8.842;2023-08-30T12:58:19;98190.31;;;19.69;89.05
52927;BME280;40783;49.710;8.842;2023-08-30T13:00:47;98189.81;;;19.72;83.07
52927;BME280;40783;49.710;8.842;2023-08-30T13:03:13;98176.72;;;19.81;86.55
52927;BME280;40783;49.710;8.842;2023-08-30T13:05:40;98181.31;;;19.81;83.44
52927;BME280;40783;49.710;8.842;2023-08-30T13:08:08;98178.50;;;19.76;85.10
52927;BME280;40783;49.710;8.842;2023-08-30T13:10:35;98176.31;;;19.61;85.43
52927;BME280;40783;49.710;8.842;2023-08-30T13:13:03;98176.25;;;19.43;84.40
52927;BME280;40783;49.710;8.842;2023-08-30T13:15:28;98170.16;;;19.36;88.43
52927;BME280;40783;49.710;8.842;2023-08-30T13:17:53;98168.66;;;19.28;87.33
52927;BME280;40783;49.710;8.842;2023-08-30T13:20:18;98173.47;;;19.26;91.02
52927;BME280;40783;49.710;8.842;2023-08-30T13:22:46;98170.41;;;19.23;88.41
52927;BME280;40783;49.710;8.842;2023-08-30T13:25:13;98171.34;;;19.17;90.25
52927;BME280;40783;49.710;8.842;2023-08-30T13:27:38;98177.25;;;19.13;89.37
52927;BME280;40783;49.710;8.842;2023-08-30T13:30:06;98175.59;;;19.12;92.48